createdAt,value
2023-04-25T00:02:16.874Z,10.10
2023-04-25T00:04:45.866Z,10.10
2023-04-25T00:07:14.433Z,10.10
2023-04-25T00:09:44.558Z,10.10
2023-04-25T00:12:12.722Z,10.10
2023-04-25T00:14:42.390Z,10.10
2023-04-25T00:17:10.595Z,10.00
2023-04-25T00:19:38.875Z,10.00
2023-04-25T00:22:07.217Z,10.00
2023-04-25T00:24:35.372Z,10.00
2023-04-25T00:27:03.527Z,10.10
2023-04-25T00:29:31.726Z,10.00
2023-04-25T00:32:01.714Z,10.00
2023-04-25T00:34:30.037Z,10.00
2023-04-25T00:36:58.549Z,10.00
2023-04-25T00:39:26.730Z,10.10
2023-04-25T00:41:56.708Z,10.10
2023-04-25T00:44:27.676Z,10.10
2023-04-25T00:46:56.572Z,10.10
2023-04-25T00:49:26.103Z,10.10
2023-04-25T00:51:54.335Z,10.10
2023-04-25T00:54:22.937Z,10.10
2023-04-25T00:56:51.264Z,10.10
2023-04-25T00:59:21.156Z,10.10
2023-04-25T01:01:49.413Z,10.10
2023-04-25T01:04:17.799Z,10.10
2023-04-25T01:06:48.050Z,10.00
2023-04-25T01:09:17.151Z,10.00
2023-04-25T01:11:46.676Z,9.90
2023-04-25T01:14:14.909Z,9.90
2023-04-25T01:16:43.743Z,9.80
2023-04-25T01:19:13.314Z,9.80
2023-04-25T01:21:43.102Z,9.80
2023-04-25T01:24:11.504Z,9.70
2023-04-25T01:26:41.132Z,9.70
2023-04-25T01:29:10.326Z,9.70
2023-04-25T01:31:39.379Z,9.70
2023-04-25T01:34:07.922Z,9.70
2023-04-25T01:36:36.569Z,9.60
2023-04-25T01:39:06.562Z,9.60
2023-04-25T01:41:36.273Z,9.60
2023-04-25T01:44:05.469Z,9.50
2023-04-25T01:46:34.983Z,9.50
2023-04-25T01:49:03.482Z,9.50
2023-04-25T01:51:32.618Z,9.50
2023-04-25T01:54:01.479Z,9.50
2023-04-25T01:56:34.373Z,9.60
2023-04-25T01:59:03.418Z,9.60
2023-04-25T02:01:54.290Z,9.60
2023-04-25T02:04:28.540Z,9.60
2023-04-25T02:06:57.151Z,9.60
2023-04-25T02:09:31.064Z,9.60
2023-04-25T02:12:01.456Z,9.60
2023-04-25T02:14:36.702Z,9.60
2023-04-25T02:17:14.998Z,9.60
2023-04-25T02:19:43.371Z,9.60
2023-04-25T02:22:11.749Z,9.60
2023-04-25T02:24:41.187Z,9.50
2023-04-25T02:27:10.900Z,9.60
2023-04-25T02:29:39.144Z,9.50
2023-04-25T02:32:07.437Z,9.50
2023-04-25T02:34:35.626Z,9.50
2023-04-25T02:37:03.921Z,9.50
2023-04-25T02:39:32.025Z,9.50
2023-04-25T02:42:00.221Z,9.50
2023-04-25T02:44:32.749Z,9.50
2023-04-25T02:47:00.915Z,9.50
2023-04-25T02:49:29.118Z,9.50
2023-04-25T02:51:57.246Z,9.40
2023-04-25T02:54:25.629Z,9.40
2023-04-25T02:56:54.069Z,9.40
2023-04-25T02:59:27.875Z,9.40
2023-04-25T03:01:57.450Z,9.40
2023-04-25T03:04:26.354Z,9.30
2023-04-25T03:06:55.272Z,9.30
2023-04-25T03:09:23.811Z,9.30
2023-04-25T03:11:54.099Z,9.30
2023-04-25T03:14:22.514Z,9.30
2023-04-25T03:16:50.834Z,9.20
2023-04-25T03:19:21.333Z,9.20
2023-04-25T03:21:50.547Z,9.20
2023-04-25T03:24:19.585Z,9.10
2023-04-25T03:26:47.818Z,9.10
2023-04-25T03:29:16.007Z,9.10
2023-04-25T03:31:45.534Z,9.10
2023-04-25T03:34:15.614Z,9.10
2023-04-25T03:36:45.389Z,9.10
2023-04-25T03:39:14.404Z,9.00
2023-04-25T03:41:47.333Z,9.00
2023-04-25T03:44:16.810Z,9.00
2023-04-25T03:46:45.550Z,9.00
2023-04-25T03:49:14.532Z,9.00
2023-04-25T03:51:59.558Z,9.00
2023-04-25T03:54:27.837Z,9.00
2023-04-25T03:57:08.395Z,8.90
2023-04-25T03:59:39.976Z,8.90
2023-04-25T04:02:10.632Z,8.80
2023-04-25T04:04:39.176Z,8.80
2023-04-25T04:07:11.572Z,8.80
2023-04-25T04:09:42.695Z,8.70
2023-04-25T04:12:16.560Z,8.70
2023-04-25T04:14:44.979Z,8.70
2023-04-25T04:17:13.662Z,8.70
2023-04-25T04:19:42.018Z,8.70
2023-04-25T04:22:21.538Z,8.70
2023-04-25T04:24:50.837Z,8.70
2023-04-25T04:27:24.102Z,8.80
2023-04-25T04:30:15.761Z,8.70
2023-04-25T04:32:58.700Z,8.80
2023-04-25T04:35:27.205Z,8.80
2023-04-25T04:37:57.268Z,8.80
2023-04-25T04:40:28.749Z,8.80
2023-04-25T04:43:06.984Z,8.80
2023-04-25T04:45:57.089Z,8.90
2023-04-25T04:48:42.573Z,8.90
2023-04-25T04:51:39.292Z,9.00
2023-04-25T04:54:19.244Z,9.00
2023-04-25T04:57:22.550Z,9.10
2023-04-25T05:00:12.007Z,9.10
2023-04-25T05:02:43.190Z,9.10
2023-04-25T05:05:17.514Z,9.20
2023-04-25T05:08:00.623Z,9.20
2023-04-25T05:10:48.674Z,9.30
2023-04-25T05:13:35.853Z,9.30
2023-04-25T05:16:23.046Z,9.20
2023-04-25T05:18:57.946Z,9.20
2023-04-25T05:21:35.338Z,9.20
2023-04-25T05:24:11.674Z,9.30
2023-04-25T05:26:54.074Z,9.40
2023-04-25T05:29:37.472Z,9.40
2023-04-25T05:32:28.295Z,9.50
2023-04-25T05:34:57.245Z,9.50
2023-04-25T05:37:28.859Z,9.50
2023-04-25T05:40:00.967Z,9.60
2023-04-25T05:42:53.032Z,9.60
2023-04-25T05:45:30.457Z,9.70
2023-04-25T05:48:08.010Z,9.70
2023-04-25T05:50:58.748Z,9.70
2023-04-25T05:53:47.207Z,9.60
2023-04-25T05:56:16.764Z,9.70
2023-04-25T05:58:46.341Z,9.70
2023-04-25T06:01:15.051Z,9.80
2023-04-25T06:03:44.440Z,9.80
2023-04-25T06:06:13.825Z,9.80
2023-04-25T06:08:42.719Z,9.90
2023-04-25T06:11:13.204Z,10.00
2023-04-25T06:13:41.589Z,10.20
2023-04-25T06:16:11.503Z,10.30
2023-04-25T06:18:40.206Z,10.40
2023-04-25T06:21:08.634Z,10.40
2023-04-25T06:23:36.868Z,10.50
2023-04-25T06:26:08.501Z,10.60
2023-04-25T06:28:39.598Z,10.60
2023-04-25T06:31:07.917Z,10.60
2023-04-25T06:33:37.654Z,10.60
2023-04-25T06:36:07.019Z,10.60
2023-04-25T06:38:36.375Z,10.60
2023-04-25T06:41:04.663Z,10.70
2023-04-25T06:43:36.383Z,10.60
2023-04-25T06:46:18.302Z,10.70
2023-04-25T06:48:51.341Z,10.80
2023-04-25T06:51:23.573Z,10.80
2023-04-25T06:53:54.787Z,10.80
2023-04-25T06:56:39.642Z,10.80
2023-04-25T06:59:13.355Z,10.80
2023-04-25T07:01:42.806Z,10.70
2023-04-25T07:04:19.982Z,10.60
2023-04-25T07:06:52.652Z,10.60
2023-04-25T07:09:25.944Z,10.60
2023-04-25T07:11:54.385Z,10.60
2023-04-25T07:14:22.748Z,10.50
2023-04-25T07:16:51.012Z,10.50
2023-04-25T07:19:20.678Z,10.60
2023-04-25T07:21:48.865Z,10.60
2023-04-25T07:24:17.606Z,10.70
2023-04-25T07:26:48.401Z,10.70
2023-04-25T07:29:26.751Z,10.70
2023-04-25T07:31:55.701Z,10.60
2023-04-25T07:34:25.643Z,10.60
2023-04-25T07:36:54.730Z,10.60
2023-04-25T07:39:24.404Z,10.50
2023-04-25T07:41:55.197Z,10.50
2023-04-25T07:44:27.434Z,10.50
2023-04-25T07:46:55.601Z,10.50
2023-04-25T07:49:25.426Z,10.60
2023-04-25T07:51:53.706Z,10.50
2023-04-25T07:54:22.963Z,10.40
2023-04-25T07:56:58.768Z,10.30
2023-04-25T07:59:31.007Z,10.30
2023-04-25T08:02:03.434Z,10.30
2023-04-25T08:04:33.565Z,10.10
2023-04-25T08:07:05.369Z,10.10
2023-04-25T08:09:40.972Z,9.90
2023-04-25T08:12:15.336Z,9.90
2023-04-25T08:14:43.897Z,9.90
2023-04-25T08:17:13.062Z,9.90
2023-04-25T08:19:44.684Z,9.90
2023-04-25T08:22:21.314Z,9.90
2023-04-25T08:24:55.491Z,9.90
2023-04-25T08:27:24.676Z,9.90
2023-04-25T08:29:53.383Z,9.90
2023-04-25T08:32:22.904Z,10.00
2023-04-25T08:35:12.939Z,10.10
2023-04-25T08:37:41.197Z,10.30
2023-04-25T08:40:17.828Z,10.40
2023-04-25T08:42:59.429Z,10.40
2023-04-25T08:45:31.302Z,10.60
2023-04-25T08:48:00.763Z,10.60
2023-04-25T08:50:31.728Z,10.70
2023-04-25T08:53:06.406Z,10.90
2023-04-25T08:55:35.595Z,11.00
2023-04-25T08:58:04.821Z,11.30
2023-04-25T09:00:33.361Z,11.50
2023-04-25T09:03:01.926Z,11.80
2023-04-25T09:05:36.455Z,12.00
2023-04-25T09:08:04.987Z,12.20
2023-04-25T09:10:33.404Z,12.30
2023-04-25T09:13:06.865Z,12.30
2023-04-25T09:15:52.154Z,12.40
2023-04-25T09:18:38.591Z,12.40
2023-04-25T09:21:14.388Z,12.40
2023-04-25T09:23:48.299Z,12.50
2023-04-25T09:26:18.939Z,12.90
2023-04-25T09:28:48.952Z,13.30
2023-04-25T09:31:25.449Z,13.40
2023-04-25T09:34:04.074Z,13.40
2023-04-25T09:36:42.958Z,13.30
2023-04-25T09:39:23.165Z,13.30
2023-04-25T09:42:04.534Z,13.10
2023-04-25T09:44:33.820Z,13.10
2023-04-25T09:47:04.446Z,13.00
2023-04-25T09:49:33.606Z,13.10
2023-04-25T09:52:07.513Z,13.50
2023-04-25T09:54:42.755Z,13.80
2023-04-25T09:57:18.764Z,14.20
2023-04-25T09:59:49.697Z,14.60
2023-04-25T10:02:21.306Z,15.00
2023-04-25T10:04:56.394Z,15.30
2023-04-25T10:07:40.651Z,15.40
2023-04-25T10:10:15.696Z,15.20
2023-04-25T10:12:45.217Z,14.90
2023-04-25T10:15:15.806Z,14.50
2023-04-25T10:17:45.772Z,14.20
2023-04-25T10:20:14.871Z,13.90
2023-04-25T10:22:49.000Z,13.70
2023-04-25T10:25:17.588Z,13.50
2023-04-25T10:27:45.983Z,13.40
2023-04-25T10:30:17.412Z,13.40
2023-04-25T10:32:48.109Z,13.50
2023-04-25T10:35:19.407Z,14.00
2023-04-25T10:38:06.332Z,14.50
2023-04-25T10:40:35.191Z,15.00
2023-04-25T10:43:38.471Z,15.40
2023-04-25T10:46:20.486Z,15.30
2023-04-25T10:48:51.407Z,15.20
2023-04-25T10:51:23.840Z,15.00
2023-04-25T10:54:03.073Z,14.90
2023-04-25T10:56:33.265Z,14.90
2023-04-25T10:59:11.099Z,14.90
2023-04-25T11:01:42.240Z,15.00
2023-04-25T11:04:24.127Z,14.90
2023-04-25T11:07:15.296Z,14.70
2023-04-25T11:09:47.672Z,14.60
2023-04-25T11:12:16.078Z,14.60
2023-04-25T11:14:44.388Z,14.70
2023-04-25T11:17:12.866Z,15.00
2023-04-25T11:19:41.241Z,15.20
2023-04-25T11:22:14.102Z,15.40
2023-04-25T11:24:42.738Z,15.50
2023-04-25T11:27:12.437Z,15.50
2023-04-25T11:29:40.791Z,15.50
2023-04-25T11:32:09.673Z,15.70
2023-04-25T11:34:38.040Z,16.00
2023-04-25T11:37:06.933Z,16.40
2023-04-25T11:39:35.793Z,16.70
2023-04-25T11:42:08.337Z,17.00
2023-04-25T11:44:43.362Z,17.00
2023-04-25T11:47:11.542Z,17.00
2023-04-25T11:49:39.662Z,16.80
2023-04-25T11:52:09.636Z,16.80
2023-04-25T11:54:38.924Z,16.60
2023-04-25T11:57:07.376Z,16.50
2023-04-25T11:59:36.092Z,16.30
2023-04-25T12:02:07.950Z,16.10
2023-04-25T12:04:36.636Z,15.90
2023-04-25T12:07:05.295Z,15.80
2023-04-25T12:09:35.812Z,15.70
2023-04-25T12:12:04.737Z,15.70
2023-04-25T12:14:35.191Z,15.80
2023-04-25T12:17:08.852Z,16.10
2023-04-25T12:19:41.176Z,16.40
2023-04-25T12:22:23.156Z,16.50
2023-04-25T12:24:51.629Z,16.60
2023-04-25T12:27:20.309Z,16.70
2023-04-25T12:29:56.681Z,16.80
2023-04-25T12:32:27.278Z,17.10
2023-04-25T12:34:55.545Z,17.50
2023-04-25T12:37:23.789Z,17.80
2023-04-25T12:39:52.240Z,17.80
2023-04-25T12:42:20.534Z,17.60
2023-04-25T12:44:48.700Z,17.40
2023-04-25T12:47:17.090Z,17.10
2023-04-25T12:49:46.606Z,17.10
2023-04-25T12:52:14.834Z,17.20
2023-04-25T12:54:43.023Z,17.80
2023-04-25T12:57:12.275Z,18.80
2023-04-25T12:59:40.537Z,19.50
2023-04-25T13:02:08.846Z,19.30
2023-04-25T13:04:37.300Z,18.80
2023-04-25T13:07:07.185Z,18.00
2023-04-25T13:09:35.498Z,17.40
2023-04-25T13:12:03.639Z,16.80
2023-04-25T13:14:31.869Z,16.40
2023-04-25T13:17:00.222Z,16.20
2023-04-25T13:19:28.530Z,15.90
2023-04-25T13:21:56.867Z,15.80
2023-04-25T13:24:26.950Z,15.50
2023-04-25T13:26:55.132Z,15.40
2023-04-25T13:29:23.334Z,15.30
2023-04-25T13:31:51.558Z,15.40
2023-04-25T13:34:19.714Z,15.50
2023-04-25T13:36:48.009Z,15.50
2023-04-25T13:39:16.243Z,15.60
2023-04-25T13:41:45.923Z,15.70
2023-04-25T13:44:14.070Z,15.60
2023-04-25T13:46:46.968Z,15.50
2023-04-25T13:49:16.522Z,15.40
2023-04-25T13:51:44.910Z,15.30
2023-04-25T13:54:13.234Z,15.20
2023-04-25T13:56:43.132Z,15.20
2023-04-25T13:59:13.090Z,15.20
2023-04-25T14:01:41.389Z,15.20
2023-04-25T14:04:10.418Z,15.20
2023-04-25T14:06:38.697Z,15.10
2023-04-25T14:09:08.066Z,14.90
2023-04-25T14:11:36.338Z,14.80
2023-04-25T14:14:05.001Z,14.60
2023-04-25T14:16:36.393Z,14.40
2023-04-25T14:19:04.785Z,14.20
2023-04-25T14:21:34.258Z,14.00
2023-04-25T14:24:02.575Z,13.90
2023-04-25T14:26:31.139Z,13.90
2023-04-25T14:28:59.566Z,13.90
2023-04-25T14:31:28.081Z,13.90
2023-04-25T14:33:59.418Z,13.80
2023-04-25T14:36:28.517Z,13.90
2023-04-25T14:38:56.976Z,13.90
2023-04-25T14:41:25.917Z,13.80
2023-04-25T14:43:54.858Z,13.70
2023-04-25T14:46:24.260Z,13.70
2023-04-25T14:48:53.160Z,13.70
2023-04-25T14:51:22.771Z,13.60
2023-04-25T14:53:51.503Z,13.40
2023-04-25T14:56:20.134Z,13.30
2023-04-25T14:58:48.329Z,13.20
2023-04-25T15:01:16.818Z,13.10
2023-04-25T15:03:45.263Z,13.00
2023-04-25T15:06:13.726Z,12.90
2023-04-25T15:08:43.317Z,12.90
2023-04-25T15:11:12.946Z,12.90
2023-04-25T15:13:41.405Z,13.00
2023-04-25T15:16:09.684Z,13.00
2023-04-25T15:18:37.927Z,13.10
2023-04-25T15:21:06.550Z,13.30
2023-04-25T15:23:34.724Z,13.40
2023-04-25T15:26:04.374Z,13.60
2023-04-25T15:28:34.628Z,13.80
2023-04-25T15:31:02.940Z,13.90
2023-04-25T15:33:31.291Z,14.10
2023-04-25T15:35:59.722Z,14.40
2023-04-25T15:38:28.006Z,14.60
2023-04-25T15:40:56.282Z,14.70
2023-04-25T15:43:26.395Z,14.90
2023-04-25T15:45:54.792Z,15.50
2023-04-25T15:48:23.105Z,15.80
2023-04-25T15:50:51.418Z,15.90
2023-04-25T15:53:19.748Z,15.90
2023-04-25T15:55:48.112Z,17.00
2023-04-25T15:58:16.432Z,18.80
2023-04-25T16:00:48.875Z,20.80
2023-04-25T16:03:17.825Z,22.10
2023-04-25T16:05:46.269Z,22.90
2023-04-25T16:08:14.565Z,23.20
2023-04-25T16:10:43.245Z,23.50
2023-04-25T16:13:11.890Z,23.90
2023-04-25T16:15:40.826Z,24.50
2023-04-25T16:18:10.435Z,25.00
2023-04-25T16:20:38.661Z,24.20
2023-04-25T16:23:06.894Z,22.90
2023-04-25T16:25:35.259Z,21.90
2023-04-25T16:28:03.491Z,21.30
2023-04-25T16:30:31.710Z,20.80
2023-04-25T16:33:03.761Z,19.60
2023-04-25T16:35:33.446Z,18.70
2023-04-25T16:38:02.280Z,18.00
2023-04-25T16:40:30.684Z,17.40
2023-04-25T16:42:58.882Z,16.80
2023-04-25T16:45:27.769Z,16.40
2023-04-25T16:47:56.178Z,16.00
2023-04-25T16:50:24.489Z,15.70
2023-04-25T16:52:54.532Z,15.30
2023-04-25T16:55:22.835Z,15.00
2023-04-25T16:57:51.070Z,14.60
2023-04-25T17:00:20.292Z,14.40
2023-04-25T17:02:48.581Z,14.30
2023-04-25T17:05:16.917Z,14.30
2023-04-25T17:07:45.073Z,14.20
2023-04-25T17:10:14.647Z,14.10
2023-04-25T17:12:43.067Z,13.80
2023-04-25T17:15:12.739Z,13.70
2023-04-25T17:17:41.105Z,13.50
2023-04-25T17:20:10.922Z,13.40
2023-04-25T17:22:39.258Z,13.30
2023-04-25T17:25:09.892Z,13.10
2023-04-25T17:27:39.487Z,13.00
2023-04-25T17:30:09.456Z,12.90
2023-04-25T17:32:37.792Z,12.70
2023-04-25T17:35:06.996Z,12.60
2023-04-25T17:37:35.308Z,12.50
2023-04-25T17:40:05.009Z,12.40
2023-04-25T17:42:33.204Z,12.30
2023-04-25T17:45:02.714Z,12.20
2023-04-25T17:47:32.034Z,12.10
2023-04-25T17:50:00.308Z,12.00
2023-04-25T17:52:29.131Z,11.90
2023-04-25T17:54:57.427Z,11.90
2023-04-25T17:57:26.321Z,11.80
2023-04-25T17:59:56.157Z,11.70
2023-04-25T18:02:26.062Z,11.60
2023-04-25T18:04:54.594Z,11.60
2023-04-25T18:07:23.531Z,11.50
2023-04-25T18:09:51.694Z,11.40
2023-04-25T18:12:21.489Z,11.40
2023-04-25T18:14:49.791Z,11.30
2023-04-25T18:17:18.185Z,11.30
2023-04-25T18:19:48.767Z,11.20
2023-04-25T18:22:17.630Z,11.20
2023-04-25T18:24:46.391Z,11.10
2023-04-25T18:27:14.825Z,11.10
2023-04-25T18:29:45.273Z,11.00
2023-04-25T18:32:13.899Z,10.90
2023-04-25T18:34:43.821Z,10.90
2023-04-25T18:37:14.329Z,10.80
2023-04-25T18:39:42.829Z,10.70
2023-04-25T18:42:11.121Z,10.70
2023-04-25T18:44:40.888Z,10.60
2023-04-25T18:47:10.215Z,10.50
2023-04-25T18:49:38.578Z,10.50
2023-04-25T18:52:10.240Z,10.40
2023-04-25T18:54:40.208Z,10.40
2023-04-25T18:57:09.327Z,10.40
2023-04-25T18:59:37.548Z,10.40
2023-04-25T19:02:06.566Z,10.30
2023-04-25T19:04:35.300Z,10.30
2023-04-25T19:07:04.100Z,10.20
2023-04-25T19:09:32.492Z,10.20
2023-04-25T19:12:03.197Z,10.20
2023-04-25T19:14:33.609Z,10.20
2023-04-25T19:17:02.083Z,10.10
2023-04-25T19:19:30.491Z,10.20
2023-04-25T19:21:59.976Z,10.10
2023-04-25T19:24:28.517Z,10.10
2023-04-25T19:26:56.801Z,10.10
2023-04-25T19:29:26.317Z,10.10
2023-04-25T19:31:57.091Z,10.10
2023-04-25T19:34:25.456Z,10.10
2023-04-25T19:36:54.267Z,10.10
2023-04-25T19:39:23.845Z,10.10
2023-04-25T19:41:52.146Z,10.10
2023-04-25T19:44:20.356Z,10.10
2023-04-25T19:46:50.513Z,10.10
2023-04-25T19:49:18.854Z,10.10
2023-04-25T19:51:47.075Z,10.10
2023-04-25T19:54:15.236Z,10.10
2023-04-25T19:56:43.582Z,10.10
2023-04-25T19:59:11.877Z,10.10
2023-04-25T20:01:40.263Z,10.10
2023-04-25T20:04:12.689Z,10.00
2023-04-25T20:06:40.918Z,10.00
2023-04-25T20:09:09.577Z,10.00
2023-04-25T20:11:37.743Z,10.00
2023-04-25T20:14:06.261Z,10.00
2023-04-25T20:16:34.500Z,9.90
2023-04-25T20:19:02.799Z,9.90
2023-04-25T20:21:33.211Z,9.90
2023-04-25T20:24:02.233Z,9.80
2023-04-25T20:26:33.780Z,9.80
2023-04-25T20:29:02.248Z,9.70
2023-04-25T20:31:31.947Z,9.70
2023-04-25T20:34:00.960Z,9.70
2023-04-25T20:36:29.685Z,9.70
2023-04-25T20:38:59.614Z,9.70
2023-04-25T20:41:27.964Z,9.70
2023-04-25T20:43:56.917Z,9.60
2023-04-25T20:46:25.451Z,9.50
2023-04-25T20:48:53.827Z,9.50
2023-04-25T20:51:23.042Z,9.50
2023-04-25T20:53:51.366Z,9.40
2023-04-25T20:56:20.973Z,9.40
2023-04-25T20:58:49.231Z,9.40
2023-04-25T21:01:18.439Z,9.40
2023-04-25T21:03:48.384Z,9.40
2023-04-25T21:06:16.937Z,9.40
2023-04-25T21:08:45.487Z,9.40
2023-04-25T21:11:13.852Z,9.40
2023-04-25T21:13:43.504Z,9.40
2023-04-25T21:16:12.185Z,9.30
2023-04-25T21:18:40.350Z,9.30
2023-04-25T21:21:09.019Z,9.30
2023-04-25T21:23:37.236Z,9.30
2023-04-25T21:26:05.983Z,9.30
2023-04-25T21:28:34.258Z,9.30
2023-04-25T21:31:04.638Z,9.30
2023-04-25T21:33:32.900Z,9.30
2023-04-25T21:36:01.190Z,9.30
2023-04-25T21:38:29.419Z,9.20
2023-04-25T21:40:57.651Z,9.20
2023-04-25T21:43:25.941Z,9.10
2023-04-25T21:46:19.017Z,9.00
2023-04-25T21:48:43.620Z,8.90
2023-04-25T21:51:12.070Z,8.80
2023-04-25T21:53:40.371Z,8.80
2023-04-25T21:56:09.053Z,8.70
2023-04-25T21:58:37.445Z,8.60
2023-04-25T22:01:05.871Z,8.60
2023-04-25T22:03:34.671Z,8.60
2023-04-25T22:06:04.887Z,8.50
2023-04-25T22:08:33.101Z,8.50
2023-04-25T22:11:02.883Z,8.50
2023-04-25T22:13:33.329Z,8.40
2023-04-25T22:16:01.533Z,8.40
2023-04-25T22:18:30.451Z,8.40
2023-04-25T22:20:58.700Z,8.30
2023-04-25T22:23:28.943Z,8.20
2023-04-25T22:25:57.050Z,8.20
2023-04-25T22:28:25.288Z,8.10
2023-04-25T22:30:53.532Z,8.00
2023-04-25T22:33:21.987Z,8.00
2023-04-25T22:35:50.186Z,7.90
2023-04-25T22:38:18.518Z,7.90
2023-04-25T22:40:48.331Z,7.80
2023-04-25T22:43:16.895Z,7.80
2023-04-25T22:45:45.277Z,7.70
2023-04-25T22:48:13.620Z,7.60
2023-04-25T22:50:41.758Z,7.60
2023-04-25T22:53:10.313Z,7.50
2023-04-25T22:55:38.592Z,7.50
2023-04-25T22:58:09.382Z,7.40
2023-04-25T23:00:37.916Z,7.30
2023-04-25T23:03:06.822Z,7.30
2023-04-25T23:05:35.073Z,7.20
2023-04-25T23:08:03.490Z,7.20
2023-04-25T23:10:31.770Z,7.20
2023-04-25T23:13:00.830Z,7.20
2023-04-25T23:15:31.293Z,7.20
2023-04-25T23:17:59.718Z,7.20
2023-04-25T23:20:28.033Z,7.20
2023-04-25T23:22:56.620Z,7.20
2023-04-25T23:25:24.949Z,7.20
2023-04-25T23:27:53.397Z,7.10
2023-04-25T23:30:22.408Z,7.10
2023-04-25T23:32:53.109Z,7.00
2023-04-25T23:35:21.540Z,6.90
2023-04-25T23:37:50.025Z,6.90
2023-04-25T23:40:18.549Z,6.80
2023-04-25T23:42:46.753Z,6.80
2023-04-25T23:45:16.507Z,6.70
2023-04-25T23:47:44.891Z,6.70
2023-04-25T23:50:14.465Z,6.60
2023-04-25T23:52:42.914Z,6.50
2023-04-25T23:55:11.324Z,6.50
2023-04-25T23:57:39.517Z,6.40
